KOA weather

Ellison Onizuka Kona International At Keahole Airport
Kailua/Kona, Hawaii, United States

Public forecast

Using degrees Fahrenheit for public forecast. Weather courtesy of forecast.io.

METAR (pilot weather report)

Retrieved 2019/03/20 11:53 UTC (1 hour ago):

PHKO 201153Z AUTO 10007KT 10SM CLR 21/14 A3003

TAF (pilot weather forecast)

Retrieved 2019/03/20 12:22 UTC (35 minutes ago):

TAF PHKO 201120Z 2012/2112 VRB05KT P6SM FEW050 FM202000 25007KT P6SM FEW030 SCT060 FM210500 VRB05KT P6SM SCT050